To NAV CANADA Home Page Login to a new session Search on AWWS site Disclaimer Vers la page française équivalente Tips FAQ What's new on the site To the Forecasts and Observations / NOTAM section To "File a Flight Plan" website Publications and other links Update of the User's profile FIC Telephone Numbers My Weather Data Folder Route Weather Data Regional Weather Data Local Weather Data To the Forecasts and Observations / NOTAM section
Request Generated 12/01/2020 at 08:18:37 UTC . Weather information available at that time is displayed.

METAR/TAF

TRENTON/ON    

SPECI CYTR 010815Z AUTO 03005KT 7SM OVC006 OVC040 OVC053 OVC073 03/03 A2942=
METAR CYTR 010800Z AUTO 03005KT 7SM -RA OVC006 OVC051 OVC063 OVC073 03/03 A2942 RMK SLP967=
SPECI CYTR 010736Z AUTO 03006KT 7SM -RA OVC006 OVC051 OVC063 OVC073 03/03 A2942=
METAR CYTR 010700Z AUTO 01006KT 7SM BKN006 BKN065 OVC079 03/03 A2942 RMK SLP965=
METAR CYTR 010600Z AUTO 35004KT 3SM FEW001 OVC006 OVC065 OVC082 03/03 A2942 RMK SLP966=

TAF CYTR 010530Z 0106/0206 01007KT 2SM -RA BR OVC001 TEMPO 0106/0111
6SM -DZ BR OVC007
FM011100 02008KT 2SM -RA BR OVC007
BECMG 0117/0119 24010KT
FM020000 26010KT 5SM -RASN BR OVC010
FM020200 27008KT 5SM -SN OVC010
RMK FCST BASED ON AUTO OBS 010600-011100Z. NXT FCST BY 011200Z=
Your time UTC time
Weather data provided by Environment Canada and NAV CANADA